Time;durP1;ratioP1;P1;durP2;ratioP2;P2;SDS_P1;SDS_P2;PMS_P1;PMS_P2;Temp;Humidity;BMP_temperature;BMP_pressure;BME280_temperature;BME280_humidity;BME280_pressure;Samples;Min_cycle;Max_cycle;Signal;HPM_P1;HPM_P2
2023/01/19 00:01:49;;;;;;;13.98;7.13;;;;;;;0.23;84.74;99893.03;6091316;23;20026;-75
2023/01/19 00:04:15;;;;;;;13.45;7.78;;;;;;;0.23;85.16;99895.59;6090537;23;20019;-75
2023/01/19 00:06:40;;;;;;;16.15;7.85;;;;;;;0.22;85.09;99892.19;6090800;23;20491;-75
2023/01/19 00:09:06;;;;;;;12.75;8.27;;;;;;;0.17;85.08;99891.25;6090728;23;20023;-75
2023/01/19 00:11:31;;;;;;;15.13;8.88;;;;;;;0.14;85.31;99889.47;6091116;23;20018;-75
2023/01/19 00:13:57;;;;;;;14.55;7.93;;;;;;;0.14;85.90;99898.81;6090952;23;20061;-75
2023/01/19 00:16:23;;;;;;;14.60;8.20;;;;;;;0.10;86.06;99889.41;6091588;23;20032;-74
2023/01/19 00:18:50;;;;;;;15.98;8.13;;;;;;;0.08;85.81;99899.53;6091176;23;19998;-75
2023/01/19 00:21:17;;;;;;;14.35;7.63;;;;;;;0.10;85.96;99892.81;6090378;23;20101;-75
2023/01/19 00:23:46;;;;;;;15.88;8.50;;;;;;;0.09;85.81;99893.63;6087452;23;20034;-75
2023/01/19 00:26:12;;;;;;;15.18;8.32;;;;;;;0.05;85.89;99898.63;6088947;23;20021;-75
2023/01/19 00:28:37;;;;;;;14.25;7.88;;;;;;;0.03;86.20;99896.03;6090154;23;20382;-74
2023/01/19 00:31:03;;;;;;;19.10;9.52;;;;;;;-0.00;86.58;99905.28;6089543;23;20010;-75
2023/01/19 00:33:28;;;;;;;15.02;8.10;;;;;;;-0.04;86.30;99898.44;6090378;23;20038;-75
2023/01/19 00:35:54;;;;;;;14.35;8.43;;;;;;;-0.09;86.30;99903.41;6090091;23;20029;-75
2023/01/19 00:38:20;;;;;;;21.85;10.00;;;;;;;-0.14;86.56;99899.94;6090434;23;20015;-74
2023/01/19 00:40:46;;;;;;;17.33;9.60;;;;;;;-0.18;86.74;99903.22;6090985;23;20014;-75
2023/01/19 00:43:12;;;;;;;14.77;9.02;;;;;;;-0.18;87.13;99905.78;6090574;23;20017;-74
2023/01/19 00:45:37;;;;;;;14.10;9.02;;;;;;;-0.23;87.14;99909.91;6090150;23;20026;-74
2023/01/19 00:48:03;;;;;;;16.50;8.50;;;;;;;-0.21;87.09;99907.38;6090791;23;20022;-74
2023/01/19 00:50:30;;;;;;;17.58;8.90;;;;;;;-0.25;87.24;99900.56;6091093;23;20366;-74
2023/01/19 00:52:56;;;;;;;18.90;9.98;;;;;;;-0.26;87.66;99897.16;6090328;23;20034;-74
2023/01/19 00:55:22;;;;;;;16.85;8.75;;;;;;;-0.26;87.79;99897.16;6089725;23;20012;-74
2023/01/19 00:57:48;;;;;;;23.55;10.60;;;;;;;-0.25;88.01;99900.56;6090209;23;20007;-74
2023/01/19 01:00:16;;;;;;;17.75;10.32;;;;;;;-0.22;88.15;99906.56;6087840;23;20109;-74
2023/01/19 01:02:43;;;;;;;16.52;9.82;;;;;;;-0.21;88.25;99907.38;6088677;23;20018;-75
2023/01/19 01:05:09;;;;;;;16.85;9.57;;;;;;;-0.22;88.12;99901.47;6087692;23;20026;-74
2023/01/19 01:07:40;;;;;;;21.27;9.43;;;;;;;-0.18;87.95;99897.28;6090164;23;20648;-74
2023/01/19 01:10:11;;;;;;;17.60;9.90;;;;;;;-0.22;88.29;99893.00;6091569;23;20033;-74
2023/01/19 01:12:37;;;;;;;15.40;9.05;;;;;;;-0.18;88.29;99892.22;6091763;23;20015;-74
2023/01/19 01:15:06;;;;;;;19.58;10.27;;;;;;;-0.19;87.94;99896.47;6091311;23;20026;-74
2023/01/19 01:17:32;;;;;;;14.30;8.30;;;;;;;-0.15;88.63;99895.69;6090620;23;20485;-74
2023/01/19 01:19:57;;;;;;;16.65;10.35;;;;;;;-0.16;88.54;99898.19;6090570;23;20097;-74
2023/01/19 01:22:23;;;;;;;19.55;9.88;;;;;;;-0.13;88.55;99895.72;6091217;23;20093;-74
2023/01/19 01:24:48;;;;;;;16.92;9.55;;;;;;;-0.10;88.24;99903.41;6091244;23;19994;-74
2023/01/19 01:27:13;;;;;;;15.57;8.77;;;;;;;-0.07;88.42;99903.47;6093474;23;20026;-74
2023/01/19 01:29:40;;;;;;;18.48;9.43;;;;;;;0.01;88.14;99907.88;6092472;23;20022;-75
2023/01/19 01:32:06;;;;;;;16.77;9.40;;;;;;;0.03;87.94;99908.75;6092271;23;20042;-74
2023/01/19 01:34:32;;;;;;;17.83;10.00;;;;;;;0.02;87.61;99913.81;6093097;23;20010;-74
2023/01/19 01:36:57;;;;;;;19.15;9.63;;;;;;;0.01;87.65;99914.63;6091054;23;20029;-75
2023/01/19 01:39:22;;;;;;;18.70;9.80;;;;;;;-0.02;87.72;99909.50;6091793;23;20109;-74
2023/01/19 01:41:48;;;;;;;16.33;8.65;;;;;;;-0.04;88.00;99908.59;6090410;23;20018;-74
2023/01/19 01:44:49;;;;;;;21.02;9.73;;;;;;;-0.01;87.91;99904.44;6092615;23;20102;-74
2023/01/19 01:47:20;;;;;;;16.88;7.80;;;;;;;0.00;88.10;99913.75;6092705;23;20029;-74
2023/01/19 01:49:46;;;;;;;14.80;8.38;;;;;;;-0.04;87.89;99912.00;6091973;23;20073;-74
2023/01/19 01:52:13;;;;;;;19.80;10.13;;;;;;;-0.09;88.16;99917.78;6091306;23;20010;-75
2023/01/19 01:54:39;;;;;;;14.18;8.00;;;;;;;-0.14;88.20;99924.47;6092427;23;20014;-74
2023/01/19 01:57:11;;;;;;;17.98;9.55;;;;;;;-0.15;88.49;99921.06;6092468;23;20458;-74
2023/01/19 01:59:41;;;;;;;15.50;8.48;;;;;;;-0.18;88.69;99926.09;6092266;23;20049;-75
2023/01/19 02:05:02;;;;;;;13.20;8.48;;;;;;;-0.16;88.66;99921.91;6090464;23;20029;-74
2023/01/19 02:13:20;;;;;;;15.27;7.53;;;;;;;-0.12;88.58;99918.59;6099261;23;20054;-77
2023/01/19 02:15:51;;;;;;;11.48;7.78;;;;;;;-0.05;88.36;99915.38;6068450;23;20025;-75
2023/01/19 02:18:17;;;;;;;11.85;6.93;;;;;;;0.06;88.43;99925.72;6086838;23;20458;-75
2023/01/19 02:20:56;;;;;;;10.68;7.10;;;;;;;0.22;87.78;99919.28;6092351;23;20018;-75
2023/01/19 02:23:40;;;;;;;9.25;6.28;;;;;;;0.37;86.88;99919.56;6093309;23;20018;-75
2023/01/19 02:26:08;;;;;;;12.15;6.68;;;;;;;0.47;86.86;99929.09;6095315;23;20018;-74
2023/01/19 02:28:37;;;;;;;13.40;6.60;;;;;;;0.55;86.49;99920.75;6095795;23;20010;-74
2023/01/19 02:31:03;;;;;;;9.80;6.47;;;;;;;0.62;86.16;99920.03;6089295;23;20010;-71
2023/01/19 02:33:29;;;;;;;9.45;6.00;;;;;;;0.67;85.78;99918.44;6095029;23;20018;-72
2023/01/19 02:35:55;;;;;;;9.73;5.82;;;;;;;0.71;85.85;99921.88;6095102;23;20030;-72
2023/01/19 02:38:24;;;;;;;10.35;4.85;;;;;;;0.72;85.24;99911.75;6094784;23;20032;-71
2023/01/19 02:40:50;;;;;;;7.25;4.70;;;;;;;0.72;85.27;99913.41;6109541;23;20025;-72
2023/01/19 02:43:17;;;;;;;7.00;4.95;;;;;;;0.71;85.46;99924.41;6113489;23;20002;-71
2023/01/19 02:45:43;;;;;;;7.05;4.80;;;;;;;0.73;85.48;99918.53;6103772;23;20022;-72
2023/01/19 02:48:08;;;;;;;9.93;4.95;;;;;;;0.77;85.04;99921.97;6092714;23;20045;-72
2023/01/19 02:50:47;;;;;;;8.63;4.70;;;;;;;0.82;85.53;99922.06;6093317;23;20030;-71
2023/01/19 02:53:19;;;;;;;6.05;4.22;;;;;;;0.81;85.11;99920.34;6092613;23;20018;-72
2023/01/19 02:55:53;;;;;;;10.57;5.35;;;;;;;0.81;85.03;99915.25;6092728;23;20462;-72
2023/01/19 02:58:23;;;;;;;9.02;4.45;;;;;;;0.78;85.18;99923.69;6094554;23;20038;-72
2023/01/19 03:00:57;;;;;;;6.20;4.30;;;;;;;0.78;85.43;99920.28;6098957;23;20517;-72
2023/01/19 03:03:59;;;;;;;7.80;4.72;;;;;;;0.84;85.25;99922.94;6090895;23;20089;-71
2023/01/19 03:06:41;;;;;;;8.63;4.82;;;;;;;0.88;84.71;99915.41;6092075;23;20030;-71
2023/01/19 03:09:31;;;;;;;7.03;4.10;;;;;;;0.91;84.40;99915.44;6093308;23;20113;-72
2023/01/19 03:12:22;;;;;;;9.00;4.32;;;;;;;0.87;84.26;99900.09;6092523;23;20030;-71
2023/01/19 03:14:48;;;;;;;7.25;4.03;;;;;;;0.87;84.16;99908.59;6080168;23;20134;-71
2023/01/19 03:17:17;;;;;;;6.47;4.32;;;;;;;0.81;84.20;99912.72;6092736;23;20050;-71
2023/01/19 03:19:47;;;;;;;7.05;4.45;;;;;;;0.73;84.47;99908.38;6090913;23;20345;-71
2023/01/19 03:22:19;;;;;;;7.03;4.32;;;;;;;0.72;84.60;99905.78;6092584;23;20010;-71
2023/01/19 03:24:47;;;;;;;10.85;4.90;;;;;;;0.68;84.59;99909.97;6091170;23;20022;-71
2023/01/19 03:27:22;;;;;;;8.23;5.05;;;;;;;0.67;84.63;99913.34;6091260;23;20084;-72
2023/01/19 03:29:53;;;;;;;6.97;4.70;;;;;;;0.66;84.99;99916.72;6092244;23;20021;-71
2023/01/19 03:32:24;;;;;;;9.27;5.18;;;;;;;0.65;84.92;99914.13;6091316;23;20022;-71
2023/01/19 03:34:51;;;;;;;7.68;4.78;;;;;;;0.59;84.92;99909.78;6092406;23;20018;-73
2023/01/19 03:37:21;;;;;;;8.43;4.50;;;;;;;0.60;84.91;99908.13;6093086;23;20014;-72
2023/01/19 03:39:46;;;;;;;6.45;4.18;;;;;;;0.57;84.98;99918.22;6093621;23;20021;-71
2023/01/19 03:42:14;;;;;;;7.30;4.60;;;;;;;0.57;85.16;99913.16;6093388;23;20082;-74
2023/01/19 03:44:42;;;;;;;11.10;5.10;;;;;;;0.58;84.56;99914.88;6090418;23;20018;-74
2023/01/19 03:47:10;;;;;;;8.23;4.88;;;;;;;0.56;84.73;99916.50;6093194;23;20029;-75
2023/01/19 03:49:37;;;;;;;10.48;4.72;;;;;;;0.57;84.71;99911.47;6092416;23;20081;-74
2023/01/19 03:52:03;;;;;;;9.65;5.25;;;;;;;0.55;84.85;99915.69;6091619;23;20400;-75
2023/01/19 03:54:29;;;;;;;7.47;4.78;;;;;;;0.55;84.88;99919.91;6091850;23;20022;-74
2023/01/19 03:56:55;;;;;;;9.52;5.38;;;;;;;0.52;84.98;99917.31;6090296;23;20088;-74
2023/01/19 03:59:20;;;;;;;9.07;5.35;;;;;;;0.55;84.84;99919.91;6089462;23;20081;-74
2023/01/19 04:01:46;;;;;;;10.95;5.72;;;;;;;0.49;85.09;99913.03;6091919;23;20014;-74
2023/01/19 04:04:12;;;;;;;9.27;5.25;;;;;;;0.48;85.30;99916.38;6091760;23;20029;-75
2023/01/19 04:06:38;;;;;;;10.35;5.13;;;;;;;0.47;85.10;99917.19;6090893;23;20022;-74
2023/01/19 04:09:04;;;;;;;8.35;5.22;;;;;;;0.53;85.29;99921.53;6090896;23;20073;-74
2023/01/19 04:11:29;;;;;;;9.32;4.95;;;;;;;0.54;84.76;99924.13;6091331;23;20079;-74
2023/01/19 04:13:54;;;;;;;7.05;4.57;;;;;;;0.59;85.16;99931.81;6089974;23;20046;-74
2023/01/19 04:16:20;;;;;;;10.35;5.13;;;;;;;0.66;84.84;99931.97;6091019;23;20125;-74
2023/01/19 04:18:47;;;;;;;8.90;4.82;;;;;;;0.71;84.59;99929.50;6091240;23;20006;-74
2023/01/19 04:21:12;;;;;;;8.93;4.75;;;;;;;0.79;84.67;99933.06;6090539;23;20014;-74
2023/01/19 04:23:38;;;;;;;9.70;5.50;;;;;;;0.87;84.11;99923.84;6091030;23;20441;-74
2023/01/19 04:26:05;;;;;;;6.88;4.75;;;;;;;0.94;84.10;99925.69;6091245;23;20074;-74
2023/01/19 04:28:31;;;;;;;7.93;5.15;;;;;;;1.01;83.56;99919.84;6088917;23;20033;-74
2023/01/19 04:30:57;;;;;;;8.88;5.63;;;;;;;1.08;83.56;99919.13;6090453;23;20324;-74
2023/01/19 04:33:23;;;;;;;11.52;5.72;;;;;;;1.14;83.52;99919.22;6090895;23;20094;-75
2023/01/19 04:35:50;;;;;;;9.50;5.47;;;;;;;1.21;83.31;99923.56;6089187;23;20014;-74
2023/01/19 04:38:16;;;;;;;9.30;5.10;;;;;;;1.24;83.09;99915.13;6090728;23;20411;-74
2023/01/19 04:40:41;;;;;;;12.20;6.03;;;;;;;1.27;82.97;99912.63;6090119;23;20015;-75
2023/01/19 04:43:07;;;;;;;11.55;5.55;;;;;;;1.26;82.88;99914.31;6091200;23;20090;-74
2023/01/19 04:45:32;;;;;;;9.43;5.95;;;;;;;1.21;83.04;99913.38;6091456;23;20635;-75
2023/01/19 04:47:58;;;;;;;9.60;6.43;;;;;;;1.18;83.09;99913.31;6091996;23;20041;-75
2023/01/19 04:50:23;;;;;;;11.68;6.55;;;;;;;1.15;83.33;99918.34;6085010;23;20027;-75
2023/01/19 04:52:49;;;;;;;10.00;5.50;;;;;;;1.16;83.33;99911.59;6092109;23;20030;-74
2023/01/19 04:55:16;;;;;;;12.00;7.03;;;;;;;1.15;83.54;99912.44;6091578;23;20065;-75
2023/01/19 04:57:42;;;;;;;10.18;6.38;;;;;;;1.17;83.50;99916.72;6090090;23;20037;-75
2023/01/19 05:00:09;;;;;;;9.98;6.07;;;;;;;1.18;83.19;99915.88;6090144;23;20045;-75
2023/01/19 05:02:35;;;;;;;9.95;6.25;;;;;;;1.20;83.14;99909.13;6090596;23;20015;-75
2023/01/19 05:05:01;;;;;;;10.48;5.93;;;;;;;1.28;82.99;99905.00;6089429;23;20458;-74
2023/01/19 05:07:26;;;;;;;9.77;6.35;;;;;;;1.39;82.32;99906.88;6090658;23;20021;-75
2023/01/19 05:09:52;;;;;;;10.63;5.72;;;;;;;1.45;82.41;99910.31;6091353;23;20002;-75
2023/01/19 05:12:18;;;;;;;9.75;6.10;;;;;;;1.51;81.95;99905.31;6090120;23;20026;-75
2023/01/19 05:14:43;;;;;;;10.57;5.90;;;;;;;1.56;81.75;99907.94;6090546;23;20465;-75
2023/01/19 05:17:09;;;;;;;12.07;6.15;;;;;;;1.59;81.52;99905.44;6090909;23;20022;-75
2023/01/19 05:19:34;;;;;;;8.77;5.55;;;;;;;1.64;81.20;99907.22;6090125;23;20014;-74
2023/01/19 05:22:04;;;;;;;10.23;5.97;;;;;;;1.68;81.55;99903.03;6089925;23;20093;-75
2023/01/19 05:24:30;;;;;;;8.02;5.25;;;;;;;1.69;81.35;99908.13;6089978;23;20018;-75
2023/01/19 05:26:55;;;;;;;9.70;5.22;;;;;;;1.72;81.06;99907.28;6089861;23;20110;-75
2023/01/19 05:29:21;;;;;;;8.88;5.22;;;;;;;1.75;81.06;99912.44;6089619;23;20022;-75
2023/01/19 05:31:46;;;;;;;8.80;5.05;;;;;;;1.77;81.01;99905.69;6090796;23;20018;-74
2023/01/19 05:34:13;;;;;;;11.05;5.25;;;;;;;1.80;80.90;99913.38;6088675;23;20417;-75
2023/01/19 05:36:39;;;;;;;8.00;5.35;;;;;;;1.84;80.88;99913.41;6090831;23;20528;-75
2023/01/19 05:39:04;;;;;;;10.13;5.10;;;;;;;1.88;80.73;99914.31;6088452;23;20014;-75
2023/01/19 05:41:29;;;;;;;8.85;5.30;;;;;;;1.92;80.53;99913.53;6089529;23;20018;-75
2023/01/19 05:43:55;;;;;;;6.18;4.80;;;;;;;1.98;79.86;99917.84;6092401;23;20042;-74
2023/01/19 05:46:20;;;;;;;10.48;4.97;;;;;;;2.07;79.39;99910.31;6089334;23;20537;-74
2023/01/19 05:48:46;;;;;;;11.25;4.47;;;;;;;2.11;79.55;99919.69;6089918;23;20481;-75
2023/01/19 05:51:11;;;;;;;7.68;4.82;;;;;;;2.16;79.07;99913.78;6090119;23;20053;-75
2023/01/19 05:53:37;;;;;;;9.63;4.95;;;;;;;2.20;79.34;99912.16;6090913;23;20019;-75
2023/01/19 05:56:07;;;;;;;7.78;4.72;;;;;;;2.21;79.57;99917.28;6091201;23;20042;-75
2023/01/19 05:58:34;;;;;;;7.88;4.60;;;;;;;2.24;79.31;99919.00;6086667;23;20006;-75
2023/01/19 06:01:04;;;;;;;7.10;3.90;;;;;;;2.28;79.07;99925.84;6090330;23;20002;-75
2023/01/19 06:03:34;;;;;;;7.80;4.40;;;;;;;2.30;79.88;99930.13;6090228;23;20023;-75
2023/01/19 06:06:00;;;;;;;5.45;3.60;;;;;;;2.33;79.16;99931.84;6091113;23;20021;-75
2023/01/19 06:08:25;;;;;;;10.43;4.20;;;;;;;2.39;79.45;99932.78;6089710;23;20431;-75
2023/01/19 06:10:51;;;;;;;8.23;4.60;;;;;;;2.42;80.14;99939.59;6089155;23;20015;-77
2023/01/19 06:13:17;;;;;;;7.13;4.38;;;;;;;2.39;80.51;99948.09;6090283;23;20011;-74
2023/01/19 06:15:43;;;;;;;6.20;4.18;;;;;;;2.40;80.77;99947.22;6092632;23;20423;-77
2023/01/19 06:18:09;;;;;;;12.23;4.38;;;;;;;2.38;81.84;99951.47;6090933;23;20030;-77
2023/01/19 06:20:36;;;;;;;7.10;4.32;;;;;;;2.38;82.01;99950.59;6090738;23;20061;-77
2023/01/19 06:23:01;;;;;;;8.80;4.57;;;;;;;2.36;82.20;99949.75;6091709;23;20014;-77
2023/01/19 06:25:27;;;;;;;6.72;4.60;;;;;;;2.34;82.75;99954.81;6088057;23;20726;-76
2023/01/19 06:27:52;;;;;;;7.82;4.60;;;;;;;2.26;83.55;99953.00;6090189;23;20010;-76
2023/01/19 06:30:18;;;;;;;8.32;4.88;;;;;;;2.21;84.58;99962.31;6090810;23;20015;-75
2023/01/19 06:32:44;;;;;;;6.68;4.55;;;;;;;2.12;85.85;99959.63;6091135;23;20022;-76
2023/01/19 06:35:09;;;;;;;7.57;4.65;;;;;;;2.01;86.42;99972.25;6092026;23;20029;-76
2023/01/19 06:37:35;;;;;;;7.57;5.18;;;;;;;1.93;87.73;99972.97;6091432;23;20010;-76
2023/01/19 06:40:01;;;;;;;9.20;5.30;;;;;;;1.79;88.73;99973.66;6091904;23;20042;-77
2023/01/19 06:42:26;;;;;;;11.20;5.28;;;;;;;1.70;88.85;99975.22;6092369;23;20398;-77
2023/01/19 06:44:52;;;;;;;9.35;5.22;;;;;;;1.59;90.16;99975.06;6091503;23;20022;-77
2023/01/19 06:47:17;;;;;;;10.02;5.30;;;;;;;1.47;90.78;99979.97;6092999;23;20069;-78
2023/01/19 06:49:43;;;;;;;8.80;5.88;;;;;;;1.36;91.69;99981.47;6092134;23;20014;-78
2023/01/19 06:52:19;;;;;;;10.80;5.55;;;;;;;1.28;92.16;99983.06;6091581;23;20097;-78
2023/01/19 06:54:45;;;;;;;16.33;7.32;;;;;;;1.23;93.02;99982.13;6092271;23;20452;-78
2023/01/19 06:57:10;;;;;;;14.20;6.78;;;;;;;1.17;93.59;99987.97;6092646;23;20066;-78
2023/01/19 06:59:37;;;;;;;12.77;5.95;;;;;;;1.12;93.74;99992.13;6092600;23;20128;-78
2023/01/19 07:02:02;;;;;;;16.23;6.93;;;;;;;1.10;94.34;99996.34;6091216;23;20462;-78
2023/01/19 07:04:27;;;;;;;17.10;7.57;;;;;;;1.09;94.49;99992.06;6091138;23;20044;-78
2023/01/19 07:06:53;;;;;;;17.55;7.70;;;;;;;1.08;95.02;99992.91;6091808;23;20509;-78
2023/01/19 07:09:19;;;;;;;16.60;7.10;;;;;;;1.07;95.09;99997.97;6091907;23;20453;-79
2023/01/19 07:11:45;;;;;;;16.15;8.73;;;;;;;1.08;95.84;100002.22;6090878;23;20030;-78
2023/01/19 07:14:11;;;;;;;12.98;7.63;;;;;;;1.05;95.83;100002.19;6089406;23;20018;-79
2023/01/19 07:16:36;;;;;;;15.57;7.07;;;;;;;1.05;95.77;100015.75;6090803;23;21681;-79
2023/01/19 07:19:02;;;;;;;15.13;7.60;;;;;;;1.05;95.77;100008.13;6091401;23;20017;-78
2023/01/19 07:21:28;;;;;;;17.13;8.23;;;;;;;1.06;96.03;100019.16;6091568;23;20089;-78
2023/01/19 07:23:53;;;;;;;20.60;8.25;;;;;;;1.06;96.50;100017.47;6090063;23;20049;-78
2023/01/19 07:26:20;;;;;;;11.45;7.05;;;;;;;1.05;96.46;100023.41;6091418;23;20462;-78
2023/01/19 07:28:47;;;;;;;16.40;7.40;;;;;;;1.05;96.16;100030.16;6091922;23;20018;-78
2023/01/19 07:31:13;;;;;;;19.70;9.45;;;;;;;1.05;96.71;100035.25;6092763;23;20074;-78
2023/01/19 07:33:38;;;;;;;17.35;8.07;;;;;;;1.05;96.66;100033.56;6092264;23;20363;-78
2023/01/19 07:36:04;;;;;;;20.13;7.82;;;;;;;1.03;96.95;100042.88;6091325;23;20049;-78
2023/01/19 07:38:29;;;;;;;15.80;7.82;;;;;;;1.05;96.94;100043.75;6091542;23;20339;-77
2023/01/19 07:41:05;;;;;;;14.00;8.02;;;;;;;1.06;97.19;100044.63;6090663;23;20105;-77
2023/01/19 07:43:32;;;;;;;21.30;8.18;;;;;;;1.06;97.27;100050.53;6089581;23;20014;-76
2023/01/19 07:46:03;;;;;;;21.20;8.80;;;;;;;1.07;97.16;100048.84;6091569;23;20179;-76
2023/01/19 07:48:28;;;;;;;17.08;8.27;;;;;;;1.06;97.38;100052.25;6090788;23;20556;-76
2023/01/19 07:51:04;;;;;;;25.02;8.75;;;;;;;1.06;97.50;100050.53;6091623;23;20018;-77
2023/01/19 07:53:30;;;;;;;22.05;8.20;;;;;;;1.06;97.57;100055.63;6089645;23;20146;-76
2023/01/19 07:55:56;;;;;;;22.73;9.77;;;;;;;1.07;97.58;100056.50;6091698;23;20022;-77
2023/01/19 07:58:23;;;;;;;19.73;9.45;;;;;;;1.08;97.76;100063.31;6093098;23;20029;-76
2023/01/19 08:00:49;;;;;;;23.67;9.23;;;;;;;1.11;97.75;100065.91;6091648;23;20014;-77
2023/01/19 08:03:14;;;;;;;21.83;10.23;;;;;;;1.13;97.47;100067.66;6090176;23;20050;-78
2023/01/19 08:05:40;;;;;;;19.25;9.27;;;;;;;1.16;97.89;100070.25;6091709;23;20026;-77
2023/01/19 08:08:05;;;;;;;15.32;8.30;;;;;;;1.20;98.04;100071.16;6089381;23;20018;-76
2023/01/19 08:10:31;;;;;;;15.52;8.07;;;;;;;1.20;97.93;100084.75;6090056;23;20427;-76
2023/01/19 08:12:57;;;;;;;22.02;10.25;;;;;;;1.21;97.81;100078.81;6089446;23;20007;-77
2023/01/19 08:15:23;;;;;;;16.27;8.80;;;;;;;1.25;98.13;100080.59;6087582;23;20093;-77
2023/01/19 08:17:56;;;;;;;21.30;9.23;;;;;;;1.26;97.87;100069.59;6089752;23;20026;-77
2023/01/19 08:20:22;;;;;;;41.03;20.15;;;;;;;1.28;97.76;100083.19;6089095;23;20044;-77
2023/01/19 08:22:47;;;;;;;26.58;12.13;;;;;;;1.30;97.98;100084.06;6090308;23;20018;-77
2023/01/19 08:25:13;;;;;;;18.58;9.57;;;;;;;1.36;97.78;100078.22;6090045;23;20033;-77
2023/01/19 08:27:38;;;;;;;15.15;8.25;;;;;;;1.40;98.32;100076.59;6091456;23;20105;-78
2023/01/19 08:30:04;;;;;;;15.23;8.23;;;;;;;1.40;98.03;100071.50;6089682;23;20018;-78
2023/01/19 08:32:31;;;;;;;17.90;9.32;;;;;;;1.45;98.08;100075.81;6092082;23;20074;-78
2023/01/19 08:34:56;;;;;;;16.17;8.85;;;;;;;1.47;97.71;100079.28;6090751;23;20125;-78
2023/01/19 08:37:23;;;;;;;16.58;8.38;;;;;;;1.52;97.84;100081.88;6088366;23;20097;-77
2023/01/19 08:39:49;;;;;;;23.67;9.05;;;;;;;1.54;98.37;100085.34;6090478;23;20085;-78
2023/01/19 08:42:15;;;;;;;16.60;8.68;;;;;;;1.55;98.07;100087.91;6092356;23;20048;-78
2023/01/19 08:44:40;;;;;;;21.13;8.75;;;;;;;1.60;97.77;100087.97;6091611;23;20506;-78
2023/01/19 08:47:07;;;;;;;19.67;8.18;;;;;;;1.62;98.01;100093.97;6089949;23;20025;-78
2023/01/19 08:49:32;;;;;;;18.88;8.18;;;;;;;1.66;98.05;100098.25;6092187;23;20010;-79
2023/01/19 08:51:58;;;;;;;16.98;8.63;;;;;;;1.70;98.05;100098.34;6093564;23;20386;-78
2023/01/19 08:54:23;;;;;;;17.50;8.02;;;;;;;1.76;98.03;100105.22;6091801;23;20037;-79
2023/01/19 08:56:49;;;;;;;22.73;9.10;;;;;;;1.80;97.68;100107.00;6090007;23;20022;-79
2023/01/19 08:59:15;;;;;;;20.83;9.02;;;;;;;1.85;98.13;100106.22;6091378;23;20172;-79
2023/01/19 09:01:41;;;;;;;15.80;8.70;;;;;;;1.90;97.80;100111.38;6089062;23;20018;-78
2023/01/19 09:04:06;;;;;;;13.80;8.25;;;;;;;1.97;97.38;100112.34;6090839;23;20037;-79
2023/01/19 09:06:31;;;;;;;17.50;8.10;;;;;;;2.05;97.29;100114.16;6091133;23;20022;-79
2023/01/19 09:08:57;;;;;;;16.95;8.40;;;;;;;2.09;97.09;100108.31;6090957;23;20049;-79
2023/01/19 09:11:22;;;;;;;27.40;9.82;;;;;;;2.16;96.79;100124.56;6089107;23;20045;-79
2023/01/19 09:13:48;;;;;;;20.42;10.75;;;;;;;2.20;96.58;100116.09;6089929;23;20086;-79
2023/01/19 09:16:14;;;;;;;16.05;8.48;;;;;;;2.23;96.25;100124.66;6089323;23;20021;-78
2023/01/19 09:18:40;;;;;;;17.77;8.50;;;;;;;2.24;96.35;100126.38;6090351;23;20462;-79
2023/01/19 09:21:07;;;;;;;20.17;8.30;;;;;;;2.27;96.07;100123.00;6090535;23;20069;-79
2023/01/19 09:23:33;;;;;;;13.15;7.95;;;;;;;2.31;95.67;100127.31;6090656;23;20022;-79
2023/01/19 09:26:01;;;;;;;15.60;8.35;;;;;;;2.36;95.11;100129.09;6089371;23;20104;-79
2023/01/19 09:28:28;;;;;;;21.80;10.50;;;;;;;2.40;95.46;100127.44;6092519;23;20013;-78
2023/01/19 09:30:53;;;;;;;21.75;9.40;;;;;;;2.45;94.97;100138.56;6094873;23;20448;-79
2023/01/19 09:33:19;;;;;;;18.80;10.27;;;;;;;2.54;95.11;100138.69;6093449;23;20124;-79
2023/01/19 09:35:47;;;;;;;14.60;9.02;;;;;;;2.57;94.64;100136.19;6093869;23;20049;-78
2023/01/19 09:38:14;;;;;;;14.43;8.45;;;;;;;2.58;94.33;100139.59;6097054;23;20093;-78
2023/01/19 09:40:42;;;;;;;16.77;8.25;;;;;;;2.54;93.83;100138.69;6097695;23;20026;-78
2023/01/19 09:43:26;;;;;;;20.10;9.98;;;;;;;2.55;94.46;100142.13;6098360;23;20003;-78
2023/01/19 09:46:00;;;;;;;16.52;9.45;;;;;;;2.54;94.42;100141.25;6096913;23;20025;-78
2023/01/19 09:48:33;;;;;;;25.70;10.57;;;;;;;2.53;94.33;100142.06;6099014;23;20027;-78
2023/01/19 09:51:03;;;;;;;21.95;12.45;;;;;;;2.54;94.24;100142.94;6097305;23;20027;-78
2023/01/19 09:53:44;;;;;;;17.23;9.30;;;;;;;2.54;94.21;100148.03;6095129;23;20021;-78
2023/01/19 09:56:18;;;;;;;21.40;9.18;;;;;;;2.56;94.52;100148.91;6094666;23;20369;-78
2023/01/19 09:58:44;;;;;;;;;;;;;;;2.57;94.52;100148.94;6091988;23;20054;-78
2023/01/19 10:01:19;;;;;;;20.85;10.00;;;;;;;2.59;94.74;100154.06;6094365;23;19905;-78
2023/01/19 10:03:45;;;;;;;16.95;8.50;;;;;;;2.62;94.09;100160.06;6092945;23;20030;-78
2023/01/19 10:06:13;;;;;;;19.73;9.73;;;;;;;2.67;94.53;100160.09;6093813;23;20081;-78
2023/01/19 10:09:09;;;;;;;13.02;8.93;;;;;;;2.70;93.73;100163.56;6091493;23;20069;-78
2023/01/19 10:11:50;;;;;;;;;;;;;;;2.72;93.56;100161.03;6093634;23;20030;-78
2023/01/19 10:14:33;;;;;;;19.88;10.25;;;;;;;2.77;93.86;100164.50;6091578;23;19939;-78
2023/01/19 10:17:04;;;;;;;19.00;9.95;;;;;;;2.81;93.73;100168.81;6091418;23;20014;-78
2023/01/19 10:19:36;;;;;;;17.80;9.35;;;;;;;2.85;92.83;100173.97;6090763;23;20013;-78
2023/01/19 10:22:19;;;;;;;27.30;10.40;;;;;;;2.93;93.58;100166.44;6092939;23;20009;-79
2023/01/19 10:24:47;;;;;;;19.10;9.52;;;;;;;3.02;92.87;100169.09;6091814;23;20088;-78
2023/01/19 10:27:19;;;;;;;18.15;9.55;;;;;;;3.07;92.55;100171.69;6092932;23;20339;-78
2023/01/19 10:29:45;;;;;;;18.13;8.68;;;;;;;3.13;92.87;100171.78;6092545;23;20014;-79
2023/01/19 10:32:21;;;;;;;25.10;11.43;;;;;;;3.15;92.19;100172.63;6092542;23;20030;-78
2023/01/19 10:34:48;;;;;;;17.10;8.98;;;;;;;3.15;92.17;100175.19;6092652;23;20515;-78
2023/01/19 10:37:16;;;;;;;21.08;10.88;;;;;;;3.11;91.85;100173.47;6091987;23;20017;-78
2023/01/19 10:39:45;;;;;;;26.55;11.77;;;;;;;3.09;92.14;100173.44;6090827;23;20101;-78
2023/01/19 10:42:15;;;;;;;21.63;10.88;;;;;;;3.07;91.84;100170.00;6089903;23;20101;-78
2023/01/19 10:44:41;;;;;;;24.50;9.55;;;;;;;3.06;92.13;100175.94;6089414;23;20022;-78
2023/01/19 10:47:15;;;;;;;21.33;9.65;;;;;;;3.14;91.71;100173.50;6089976;23;20461;-78
2023/01/19 10:49:41;;;;;;;25.33;10.83;;;;;;;3.20;92.07;100171.84;6090489;23;20006;-78
2023/01/19 10:52:29;;;;;;;20.30;10.20;;;;;;;3.25;91.35;100171.91;6092871;23;20257;-78
2023/01/19 10:54:56;;;;;;;18.63;10.23;;;;;;;3.27;90.93;100172.78;6091302;23;20061;-78
2023/01/19 10:57:29;;;;;;;23.05;10.73;;;;;;;3.36;91.47;100178.00;6092975;23;20014;-78
2023/01/19 10:59:55;;;;;;;21.20;9.63;;;;;;;3.33;90.71;100170.28;6091102;23;20030;-78
2023/01/19 11:02:27;;;;;;;24.65;10.55;;;;;;;3.38;90.42;100173.75;6089585;23;20101;-78
2023/01/19 11:04:58;;;;;;;25.40;10.23;;;;;;;3.37;90.76;100172.91;6090924;23;20327;-78
2023/01/19 11:07:33;;;;;;;20.95;10.30;;;;;;;3.38;90.20;100169.50;6092102;23;20010;-78
2023/01/19 11:10:14;;;;;;;;;;;;;;;3.38;90.27;100174.59;6092035;23;20069;-78
2023/01/19 11:12:45;;;;;;;21.08;10.05;;;;;;;3.41;89.39;100182.31;6092592;23;19920;-78
2023/01/19 11:15:20;;;;;;;21.90;10.13;;;;;;;3.45;89.40;100183.19;6092920;23;20023;-79
2023/01/19 11:17:47;;;;;;;20.73;9.48;;;;;;;3.49;88.90;100175.59;6089416;23;20366;-79
2023/01/19 11:20:42;;;;;;;28.65;13.43;;;;;;;3.57;89.46;100178.22;6090952;23;20335;-79
2023/01/19 11:23:14;;;;;;;34.42;15.23;;;;;;;3.66;89.18;100175.75;6090007;23;20049;-79
2023/01/19 11:25:39;;;;;;;45.25;20.33;;;;;;;3.70;88.65;100174.97;6093834;23;20610;-79
2023/01/19 11:28:13;;;;;;;34.15;14.00;;;;;;;3.74;88.50;100176.69;6096279;23;20477;-79
2023/01/19 11:30:59;;;;;;;33.67;14.43;;;;;;;3.86;88.95;100169.13;6100339;23;20358;-78
2023/01/19 11:33:33;;;;;;;22.27;10.20;;;;;;;3.97;87.84;100174.34;6092790;23;20049;-79
2023/01/19 11:36:13;;;;;;;19.55;10.00;;;;;;;4.04;87.88;100176.09;6092488;23;20024;-78
2023/01/19 11:38:44;;;;;;;22.38;9.35;;;;;;;4.04;86.06;100176.09;6092371;23;20022;-78
2023/01/19 11:41:15;;;;;;;57.47;25.40;;;;;;;4.11;86.56;100180.44;6091968;23;20361;-78
2023/01/19 11:43:41;;;;;;;23.30;9.93;;;;;;;4.15;86.40;100168.53;6091656;23;20022;-78
2023/01/19 11:46:11;;;;;;;21.60;9.32;;;;;;;4.16;85.47;100171.09;6092851;23;20014;-78